Roza A — TCRB7 — position and weather

sailwx.info

Track history (hours):
 
Tides and Currents Weather Stations Pressure Air Temp Water Temp Dewpoint Dewpoint Depression Visibility Wind Speed Wind Dir Waves Ship Positions

Roza A

Last reported at 2014-Oct-01 19:34 UTC. Time now 2014-Oct-02 08:34 UTC.
Position N 39°32' W 000°08'.

Length 169 m; draft 6.9 m.

Type: Ship (hazmat cat A). MMSI: 271001057.

Date/timePositionNaut miles runAvg speedWind from/ knotsBaromVisibWave heightAir tempDewpointWater temp
2014-Oct-01 19:34N 39°32' W 000°08'10 9.8
2014-Oct-01 18:34N 39°26' W 000°18'1 1.1
2014-Oct-01 17:30N 39°27' W 000°19'0 0.0
2014-Oct-01 16:33N 39°27' W 000°19'0 0.0
2014-Oct-01 15:33N 39°27' W 000°19'0 0.0
2014-Oct-01 14:27N 39°27' W 000°19'0 0.0
2014-Oct-01 13:18N 39°27' W 000°19'0 0.0
2014-Oct-01 12:33N 39°27' W 000°19'0 0.0
2014-Oct-01 11:30N 39°27' W 000°19'0 0.0
2014-Oct-01 10:33N 39°27' W 000°19'0 0.0
2014-Oct-01 09:33N 39°27' W 000°19'0 0.0
2014-Oct-01 08:33N 39°27' W 000°19'0 0.0
2014-Oct-01 07:27N 39°27' W 000°19'0 0.0
2014-Oct-01 06:33N 39°27' W 000°19'0 0.0
2014-Oct-01 05:33N 39°27' W 000°19'0 0.0
2014-Oct-01 04:33N 39°27' W 000°19'3 2.8
2014-Oct-01 03:34N 39°25' W 000°17'10 8.7
2014-Oct-01 02:22N 39°24' W 000°03'5411.1
2014-Sep-30 21:30N 39°15' E 001°06'1410.8
2014-Sep-30 20:10N 39°13' E 001°24'710.9
2014-Sep-30 19:33N 39°12' E 001°33'1111.4
2014-Sep-30 18:33N 39°11' E 001°47'1111.2
2014-Sep-30 17:33N 39°09' E 002°02'1111.1
2014-Sep-30 16:33N 39°07' E 002°16'1111.0
2014-Sep-30 15:33N 39°06' E 002°30'1110.7
2014-Sep-30 14:33N 39°05' E 002°44'1110.5
2014-Sep-30 13:33N 39°04' E 002°57'1414.3
2014-Sep-30 12:33N 39°03' E 003°15'1414.5
2014-Sep-30 11:33N 39°03' E 003°34'1711.5
2014-Sep-30 10:05N 39°02' E 003°56'610.7
2014-Sep-30 09:33N 39°01' E 004°03'20113.4
2014-Sep-29 18:32N 38°47' E 008°21'1915.2
2014-Sep-29 17:15N 38°47' E 008°45'1014.4
2014-Sep-29 16:33N 38°52' E 008°57'1414.1
2014-Sep-29 15:33N 39°03' E 009°08'1110.6
2014-Sep-29 14:33N 39°13' E 009°04'0 0.0
2014-Sep-29 13:33N 39°13' E 009°04'0 0.0
2014-Sep-29 12:33N 39°13' E 009°04'0 0.0
2014-Sep-29 11:33N 39°13' E 009°04'0 0.0
2014-Sep-29 10:33N 39°13' E 009°04'0 0.0
2014-Sep-29 09:33N 39°13' E 009°04'0 0.0
2014-Sep-29 08:33N 39°13' E 009°04'0 0.0
2014-Sep-29 07:33N 39°13' E 009°04'0 0.0
2014-Sep-29 06:33N 39°13' E 009°04'0 0.0
2014-Sep-29 05:33N 39°13' E 009°04'0 0.0
2014-Sep-29 04:33N 39°13' E 009°04'0 0.0
2014-Sep-29 03:33N 39°13' E 009°04'0 0.0
2014-Sep-29 02:33N 39°13' E 009°04'0 0.0
2014-Sep-29 01:33N 39°13' E 009°04'0 0.0
2014-Sep-29 00:33N 39°13' E 009°04'0 0.0
2014-Sep-28 23:33N 39°13' E 009°04'1 0.8
2014-Sep-28 22:33N 39°12' E 009°05'7 7.4
2014-Sep-28 21:33N 39°06' E 009°09'1111.0
2014-Sep-28 20:33N 38°60' E 009°21'24110.9
2014-Sep-27 22:33N 36°56' E 013°43'1210.3
2014-Sep-27 21:22N 36°51' E 013°57'810.1
2014-Sep-27 20:33N 36°47' E 014°06'1010.3
2014-Sep-27 19:33N 36°43' E 014°18'1110.8
2014-Sep-27 18:33N 36°39' E 014°30'41110.7
2014-Sep-26 04:17N 36°25' E 023°01'810.3
2014-Sep-26 03:33N 36°24' E 023°10'1010.1
2014-Sep-26 02:33N 36°32' E 023°19'1111.0
2014-Sep-26 01:33N 36°41' E 023°26'1210.7
2014-Sep-26 00:29N 36°51' E 023°33'1110.6
2014-Sep-25 23:27N 37°01' E 023°40'1010.6
2014-Sep-25 22:30N 37°09' E 023°47'1110.5
2014-Sep-25 21:29N 37°18' E 023°54'1010.6
2014-Sep-25 20:33N 37°27' E 023°60'1110.6
2014-Sep-25 19:33N 37°36' E 024°07'1310.6
2014-Sep-25 18:22N 37°44' E 024°19'1111.0
2014-Sep-25 17:24N 37°51' E 024°29'2611.2
2014-Sep-25 15:07N 38°09' E 024°52'  
2014-Sep-22 14:26N 40°25' E 029°05'0 0.0
2014-Sep-22 13:32N 40°25' E 029°05'0 0.0
2014-Sep-22 12:08N 40°25' E 029°05'0 0.0
2014-Sep-22 11:26N 40°25' E 029°05'0 0.0
2014-Sep-22 10:20N 40°25' E 029°05'0 0.0
2014-Sep-22 08:20N 40°25' E 029°05'0 0.0
2014-Sep-22 07:32N 40°25' E 029°05'0 0.0
2014-Sep-22 06:26N 40°25' E 029°05'0 0.0
2014-Sep-22 05:32N 40°25' E 029°05'0 0.0
2014-Sep-22 04:21N 40°25' E 029°05'2 2.9
2014-Sep-22 03:32N 40°25' E 029°02'1413.8
2014-Sep-22 02:31N 40°30' E 028°44'1313.4
2014-Sep-22 01:33N 40°41' E 028°54'1514.5
2014-Sep-22 00:33N 40°43' E 029°13'1312.6
2014-Sep-21 23:32N 40°45' E 029°29'9 9.3
2014-Sep-21 22:32N 40°46' E 029°42'  
Track history (hours):
 
Tides and Currents Weather Stations Pressure Air Temp Water Temp Dewpoint Dewpoint Depression Visibility Wind Speed Wind Dir Waves Ship Positions

Roza A

Last reported at 2014-Oct-01 19:34 UTC. Time now 2014-Oct-02 08:34 UTC.
Position N 39°32' W 000°08'.

Length 169 m; draft 6.9 m.

Type: Ship (hazmat cat A). MMSI: 271001057.

Date/timePositionNaut miles runAvg speedWind from/ knotsBaromVisibWave heightAir tempDewpointWater temp
2014-Oct-01 19:34N 39°32' W 000°08'10 9.8
2014-Oct-01 18:34N 39°26' W 000°18'1 1.1
2014-Oct-01 17:30N 39°27' W 000°19'0 0.0
2014-Oct-01 16:33N 39°27' W 000°19'0 0.0
2014-Oct-01 15:33N 39°27' W 000°19'0 0.0
2014-Oct-01 14:27N 39°27' W 000°19'0 0.0
2014-Oct-01 13:18N 39°27' W 000°19'0 0.0
2014-Oct-01 12:33N 39°27' W 000°19'0 0.0
2014-Oct-01 11:30N 39°27' W 000°19'0 0.0
2014-Oct-01 10:33N 39°27' W 000°19'0 0.0
2014-Oct-01 09:33N 39°27' W 000°19'0 0.0
2014-Oct-01 08:33N 39°27' W 000°19'0 0.0
2014-Oct-01 07:27N 39°27' W 000°19'0 0.0
2014-Oct-01 06:33N 39°27' W 000°19'0 0.0
2014-Oct-01 05:33N 39°27' W 000°19'0 0.0
2014-Oct-01 04:33N 39°27' W 000°19'3 2.8
2014-Oct-01 03:34N 39°25' W 000°17'10 8.7
2014-Oct-01 02:22N 39°24' W 000°03'5411.1
2014-Sep-30 21:30N 39°15' E 001°06'1410.8
2014-Sep-30 20:10N 39°13' E 001°24'710.9
2014-Sep-30 19:33N 39°12' E 001°33'1111.4
2014-Sep-30 18:33N 39°11' E 001°47'1111.2
2014-Sep-30 17:33N 39°09' E 002°02'1111.1
2014-Sep-30 16:33N 39°07' E 002°16'1111.0
2014-Sep-30 15:33N 39°06' E 002°30'1110.7
2014-Sep-30 14:33N 39°05' E 002°44'1110.5
2014-Sep-30 13:33N 39°04' E 002°57'1414.3
2014-Sep-30 12:33N 39°03' E 003°15'1414.5
2014-Sep-30 11:33N 39°03' E 003°34'1711.5
2014-Sep-30 10:05N 39°02' E 003°56'610.7
2014-Sep-30 09:33N 39°01' E 004°03'20113.4
2014-Sep-29 18:32N 38°47' E 008°21'1915.2
2014-Sep-29 17:15N 38°47' E 008°45'1014.4
2014-Sep-29 16:33N 38°52' E 008°57'1414.1
2014-Sep-29 15:33N 39°03' E 009°08'1110.6
2014-Sep-29 14:33N 39°13' E 009°04'0 0.0
2014-Sep-29 13:33N 39°13' E 009°04'0 0.0
2014-Sep-29 12:33N 39°13' E 009°04'0 0.0
2014-Sep-29 11:33N 39°13' E 009°04'0 0.0
2014-Sep-29 10:33N 39°13' E 009°04'0 0.0
2014-Sep-29 09:33N 39°13' E 009°04'0 0.0
2014-Sep-29 08:33N 39°13' E 009°04'0 0.0
2014-Sep-29 07:33N 39°13' E 009°04'0 0.0
2014-Sep-29 06:33N 39°13' E 009°04'0 0.0
2014-Sep-29 05:33N 39°13' E 009°04'0 0.0
2014-Sep-29 04:33N 39°13' E 009°04'0 0.0
2014-Sep-29 03:33N 39°13' E 009°04'0 0.0
2014-Sep-29 02:33N 39°13' E 009°04'0 0.0
2014-Sep-29 01:33N 39°13' E 009°04'0 0.0
2014-Sep-29 00:33N 39°13' E 009°04'0 0.0
2014-Sep-28 23:33N 39°13' E 009°04'1 0.8
2014-Sep-28 22:33N 39°12' E 009°05'7 7.4
2014-Sep-28 21:33N 39°06' E 009°09'1111.0
2014-Sep-28 20:33N 38°60' E 009°21'24110.9
2014-Sep-27 22:33N 36°56' E 013°43'1210.3
2014-Sep-27 21:22N 36°51' E 013°57'810.1
2014-Sep-27 20:33N 36°47' E 014°06'1010.3
2014-Sep-27 19:33N 36°43' E 014°18'1110.8
2014-Sep-27 18:33N 36°39' E 014°30'41110.7
2014-Sep-26 04:17N 36°25' E 023°01'810.3
2014-Sep-26 03:33N 36°24' E 023°10'1010.1
2014-Sep-26 02:33N 36°32' E 023°19'1111.0
2014-Sep-26 01:33N 36°41' E 023°26'1210.7
2014-Sep-26 00:29N 36°51' E 023°33'1110.6
2014-Sep-25 23:27N 37°01' E 023°40'1010.6
2014-Sep-25 22:30N 37°09' E 023°47'1110.5
2014-Sep-25 21:29N 37°18' E 023°54'1010.6
2014-Sep-25 20:33N 37°27' E 023°60'1110.6
2014-Sep-25 19:33N 37°36' E 024°07'1310.6
2014-Sep-25 18:22N 37°44' E 024°19'1111.0
2014-Sep-25 17:24N 37°51' E 024°29'2611.2
2014-Sep-25 15:07N 38°09' E 024°52'  
2014-Sep-22 14:26N 40°25' E 029°05'0 0.0
2014-Sep-22 13:32N 40°25' E 029°05'0 0.0
2014-Sep-22 12:08N 40°25' E 029°05'0 0.0
2014-Sep-22 11:26N 40°25' E 029°05'0 0.0
2014-Sep-22 10:20N 40°25' E 029°05'0 0.0
2014-Sep-22 08:20N 40°25' E 029°05'0 0.0
2014-Sep-22 07:32N 40°25' E 029°05'0 0.0
2014-Sep-22 06:26N 40°25' E 029°05'0 0.0
2014-Sep-22 05:32N 40°25' E 029°05'0 0.0
2014-Sep-22 04:21N 40°25' E 029°05'2 2.9
2014-Sep-22 03:32N 40°25' E 029°02'1413.8
2014-Sep-22 02:31N 40°30' E 028°44'1313.4
2014-Sep-22 01:33N 40°41' E 028°54'1514.5
2014-Sep-22 00:33N 40°43' E 029°13'1312.6
2014-Sep-21 23:32N 40°45' E 029°29'9 9.3
2014-Sep-21 22:32N 40°46' E 029°42'  

Dump ship's entire track history